Terminal Aerodrome Forecast
Issued by NWS Portland, OR

Home | Current Version | Previous Version | Text Only | Print | Product List | Glossary On
Versions: 1 2 3 4 5 6 7 8 9 10 11 12 13 14 15 16 17 18 19 20
000
FTUS46 KPQR 181124
TAFEUG
TAF
KEUG 181124Z 1812/1912 00000KT 1/2SM FG VV002
     FM181600 34003KT 5SM BR BKN005
     FM181900 36005KT P6SM SCT200
     FM190900 20007KT P6SM BKN120=

USA.gov is the U.S. government's official web portal to all federal, state and local government web resources and services.